This is the latest recevied weather packets stored in our database for station/object SP2NBH-2. If no packets are shown the sender has not sent any weather packets the latest 10 day(s).
| Time | Temp. | Humidity | Pressure | Rain* | Wind** | Luminosity | Snow |
|---|---|---|---|---|---|---|---|
| 1777926083 | 12.22° C | 69% | 1013.3 hPa | - | - | - | - |
| 1777925183 | 12.22° C | 69% | 1013.3 hPa | - | - | - | - |
| 1777924283 | 12.78° C | 69% | 1013.3 hPa | - | - | - | - |
| 1777922482 | 13.33° C | 67% | 1013.3 hPa | - | - | - | - |
| 1777920682 | 13.33° C | 65% | 1013.1 hPa | - | - | - | - |
| 1777919782 | 13.89° C | 65% | 1013 hPa | - | - | - | - |
| 1777918881 | 15° C | 64% | 1012.9 hPa | - | - | - | - |
| 1777917176 | 15.56° C | 60% | 1012.6 hPa | - | - | - | - |
| 1777916276 | 16.67° C | 57% | 1012.5 hPa | - | - | - | - |
| 1777915376 | 17.22° C | 57% | 1012.3 hPa | - | - | - | - |
| 1777914476 | 17.78° C | 55% | 1012.2 hPa | - | - | - | - |
| 1777913576 | 17.78° C | 55% | 1012.1 hPa | - | - | - | - |
| 1777912676 | 20° C | 47% | 1012 hPa | - | - | - | - |
| 1777911775 | 22.22° C | 43% | 1011.8 hPa | - | - | - | - |
| 1777910942 | 22.22° C | 43% | 1011.8 hPa | - | - | - | - |
| 1777910875 | 22.22° C | 43% | 1011.8 hPa | - | - | - | - |
| 1777909077 | 20° C | 48% | 1011.6 hPa | - | - | - | - |
| 1777908177 | 20.56° C | 47% | 1011.4 hPa | - | - | - | - |
| 1777907276 | 21.67° C | 50% | 1011.5 hPa | - | - | - | - |
| 1777906376 | 19.44° C | 50% | 1011.5 hPa | - | - | - | - |
| 1777905476 | 20° C | 48% | 1011.5 hPa | - | - | - | - |
| 1777904576 | 21.11° C | 46% | 1011.5 hPa | - | - | - | - |
| 1777903676 | 20.56° C | 46% | 1011.3 hPa | - | - | - | - |
| 1777902776 | 25° C | 39% | 1011.1 hPa | - | - | - | - |
| 1777901926 | 24.44° C | 42% | 1011.1 hPa | - | - | - | - |
* Rain since midnight (hover to see other rain measurements)
** Current wind speed in m/s (hover to see current wind gust speed)